Time;durP1;ratioP1;P1;durP2;ratioP2;P2;SDS_P1;SDS_P2;PMS_P1;PMS_P2;Temp;Humidity;BMP_temperature;BMP_pressure;BME280_temperature;BME280_humidity;BME280_pressure;Samples;Min_cycle;Max_cycle;Signal;HPM_P1;HPM_P2
2023/11/16 00:01:28;382093.00;1.27;659.02;5763.00;0.02;10.61;;;;;13.80;1.00;;;;;;2271640;61;1577;-88
2023/11/16 00:03:55;611295.00;2.04;1053.73;8794.00;0.03;15.86;;;;;13.60;1.00;;;;;;2279113;40;3573;-88
2023/11/16 00:06:22;443796.00;1.48;765.11;0.00;0.00;0.62;;;;;13.20;1.00;;;;;;2271635;61;1601;-88
2023/11/16 00:08:49;523190.00;1.74;901.76;0.00;0.00;0.62;;;;;13.00;1.00;;;;;;2271546;61;2008;-88
2023/11/16 00:13:46;1031842.00;3.44;1788.95;0.00;0.00;0.62;;;;;13.10;1.00;;;;;;2269403;61;1409;-88
2023/11/16 00:16:15;558695.00;1.86;962.95;0.00;0.00;0.62;;;;;13.40;1.00;;;;;;2267606;61;1738;-87
2023/11/16 00:18:42;354694.00;1.18;611.93;0.00;0.00;0.62;;;;;13.90;1.00;;;;;;2267438;61;1823;-87
2023/11/16 00:28:35;885478.00;2.95;1530.63;26881.00;0.09;47.18;;;;;13.20;1.00;;;;;;2269227;61;1400;-87
2023/11/16 00:31:04;589293.00;1.96;1015.74;37602.00;0.13;65.74;;;;;12.90;1.00;;;;;;2267635;61;1928;-88
2023/11/16 00:38:28;601316.00;2.00;1036.49;53413.00;0.18;93.09;;;;;13.10;1.00;;;;;;2290341;40;3670;-87
2023/11/16 00:40:55;569682.00;1.90;981.90;13907.00;0.05;24.72;;;;;12.90;1.00;;;;;;2276329;61;1041;-87
2023/11/16 00:43:27;506130.00;1.69;872.38;43236.00;0.14;75.49;;;;;12.90;1.00;;;;;;2277497;39;3544;-87
2023/11/16 00:45:54;557781.00;1.86;961.37;1012.00;0.00;2.37;;;;;12.80;1.00;;;;;;2272295;61;1627;-87
2023/11/16 00:48:23;699810.00;2.33;1206.91;34958.00;0.12;61.16;;;;;13.00;1.00;;;;;;2280649;55;3781;-88
2023/11/16 00:50:49;650387.00;2.17;1121.31;58610.00;0.20;102.07;;;;;13.10;1.00;;;;;;2271848;61;1909;-88
2023/11/16 00:53:16;493597.00;1.65;850.80;6353.00;0.02;11.63;;;;;12.90;1.00;;;;;;2272242;61;1739;-88
2023/11/16 00:55:43;355608.00;1.19;613.50;0.00;0.00;0.62;;;;;12.90;1.00;;;;;;2272134;61;1546;-87
2023/11/16 00:58:10;492503.00;1.64;848.92;0.00;0.00;0.62;;;;;12.80;1.00;;;;;;2272150;61;1764;-87
2023/11/16 01:03:10;229917.00;0.77;397.41;0.00;0.00;0.62;;;;;12.50;1.00;;;;;;2269840;61;1400;-87
2023/11/16 01:05:39;481826.00;1.61;830.54;0.00;0.00;0.62;;;;;12.30;1.00;;;;;;2267983;61;1537;-88
2023/11/16 01:08:09;263168.00;0.88;454.60;0.00;0.00;0.62;;;;;12.40;1.00;;;;;;2268300;61;932;-87
2023/11/16 01:10:37;270504.00;0.90;467.21;0.00;0.00;0.62;;;;;12.80;1.00;;;;;;2287877;55;3729;-88
2023/11/16 01:15:32;508755.00;1.70;876.90;0.00;0.00;0.62;;;;;12.90;1.00;;;;;;2265568;61;1431;-90
2023/11/16 01:23:02;929888.00;3.10;1608.67;30273.00;0.10;53.06;;;;;13.10;1.00;;;;;;2284694;40;3477;-87
2023/11/16 01:28:00;721113.00;2.40;1243.87;5853.00;0.02;10.76;;;;;13.60;1.00;;;;;;2269932;61;1483;-88
2023/11/16 01:30:27;811029.00;2.70;1400.37;88589.00;0.30;153.87;;;;;13.50;1.00;;;;;;2267894;61;1919;-89
2023/11/16 01:32:54;509727.00;1.70;878.57;10801.00;0.04;19.34;;;;;13.60;1.00;;;;;;2287111;40;3737;-87
2023/11/16 01:37:52;1056539.00;3.52;1832.87;46226.00;0.15;80.66;;;;;13.70;1.00;;;;;;2269926;61;1396;-88
2023/11/16 01:40:20;776297.00;2.59;1339.82;77246.00;0.26;134.28;;;;;13.80;1.00;;;;;;2268134;61;1587;-89
2023/11/16 01:42:47;766668.00;2.56;1323.05;7102.00;0.02;12.93;;;;;14.00;1.00;;;;;;2285169;56;3743;-89
2023/11/16 01:47:50;867858.00;2.89;1499.74;7122.00;0.02;12.96;;;;;14.30;1.00;;;;;;2381397;40;2132;-90
2023/11/16 01:50:17;478593.00;1.60;824.98;0.00;0.00;0.62;;;;;14.50;1.00;;;;;;2271956;61;1916;-89
2023/11/16 01:55:12;852969.00;2.84;1473.66;0.00;0.00;0.62;;;;;14.50;1.00;;;;;;2269976;61;1380;-87
2023/11/16 02:13:37;155439.00;0.52;269.18;0.00;0.00;0.62;;;;;13.90;1.00;;;;;;2387286;40;3526;-88
2023/11/16 04:17:03;857457.00;2.86;1481.52;0.00;0.00;0.62;;;;;14.90;1.00;;;;;;2274813;61;992;-92
2023/11/16 04:19:33;78326.00;0.26;136.15;0.00;0.00;0.62;;;;;15.10;1.00;;;;;;2506732;40;3800;31
2023/11/16 05:55:49;126551216.00;421.84;82114216.00;92628.00;0.31;160.85;;;;;15.20;1.00;;;;;;2476370;40;2987;31
2023/11/16 06:25:44;770022.00;2.57;1328.89;80658.00;0.27;140.17;;;;;15.50;1.00;;;;;;2275389;55;3661;-88
2023/11/16 06:30:40;553694.00;1.85;954.33;83501.00;0.28;145.08;;;;;15.50;1.00;;;;;;2269833;61;1962;-87
2023/11/16 06:35:36;1042543.00;3.48;1807.97;85896.00;0.29;149.22;;;;;15.50;1.00;;;;;;2269479;61;1407;-88
2023/11/16 06:38:04;493451.00;1.64;850.55;132146.00;0.44;229.03;;;;;15.50;1.00;;;;;;2270737;55;3783;-89
2023/11/16 06:40:31;553527.00;1.85;954.04;83880.00;0.28;145.74;;;;;15.40;1.00;;;;;;2278268;61;1380;-90
2023/11/16 06:45:29;534997.00;1.78;922.10;97351.00;0.32;169.00;;;;;15.00;1.00;;;;;;2265491;61;1437;-89
2023/11/16 06:47:56;291256.00;0.97;502.89;78230.00;0.26;135.98;;;;;15.10;1.00;;;;;;2283094;40;3604;-88
2023/11/16 06:52:52;303665.00;1.01;524.22;71347.00;0.24;124.09;;;;;15.30;1.00;;;;;;2269949;61;1404;-89
2023/11/16 06:55:19;311667.00;1.04;537.97;82655.00;0.28;143.62;;;;;15.40;1.00;;;;;;2267910;61;1313;-90
2023/11/16 07:00:21;356976.00;1.19;615.85;91400.00;0.30;158.73;;;;;15.40;1.00;;;;;;2269898;61;1420;-87
2023/11/16 07:02:49;290963.00;0.97;502.38;88117.00;0.29;153.06;;;;;15.50;1.00;;;;;;2268042;61;1599;-87
2023/11/16 07:05:16;241216.00;0.80;416.84;83185.00;0.28;144.54;;;;;15.20;1.00;;;;;;2268027;61;1760;-86
2023/11/16 07:07:45;275708.00;0.92;476.16;82352.00;0.27;143.10;;;;;15.10;1.00;;;;;;2268126;61;1071;-88
2023/11/16 07:10:12;297845.00;0.99;514.22;80318.00;0.27;139.59;;;;;15.10;1.00;;;;;;2268110;61;2017;-86
2023/11/16 07:12:41;237200.00;0.79;409.93;75190.00;0.25;130.73;;;;;15.00;1.00;;;;;;2268098;61;1032;-87
2023/11/16 07:15:08;262716.00;0.88;453.82;84739.00;0.28;147.22;;;;;15.20;1.00;;;;;;2268075;61;1447;-86
2023/11/16 07:17:37;377307.00;1.26;650.80;73481.00;0.24;127.78;;;;;15.20;1.00;;;;;;2268120;61;1174;-86
2023/11/16 07:20:09;378050.00;1.26;652.07;86000.00;0.29;149.40;;;;;15.30;1.00;;;;;;2268063;61;1145;-88
2023/11/16 07:22:36;484888.00;1.62;835.81;85405.00;0.28;148.37;;;;;15.50;1.00;;;;;;2267870;61;1609;-88
2023/11/16 07:25:05;497786.00;1.66;858.01;84778.00;0.28;147.29;;;;;15.40;1.00;;;;;;2268144;61;1345;-88
2023/11/16 07:27:33;467295.00;1.56;805.54;84583.00;0.28;146.95;;;;;15.40;1.00;;;;;;2268105;61;1284;-88
2023/11/16 07:30:00;280979.00;0.94;485.22;86434.00;0.29;150.15;;;;;15.50;1.00;;;;;;2268016;61;2004;-88
2023/11/16 07:32:27;299776.00;1.00;517.53;110091.00;0.37;190.99;;;;;15.40;1.00;;;;;;2268199;61;1066;-87
2023/11/16 07:34:56;250211.00;0.83;432.31;75062.00;0.25;130.51;;;;;15.40;1.00;;;;;;2268127;61;1386;-88
2023/11/16 07:37:24;322480.00;1.07;556.56;80587.00;0.27;140.05;;;;;15.30;1.00;;;;;;2268133;61;1049;-87
2023/11/16 07:39:51;170010.00;0.57;294.28;89440.00;0.30;155.34;;;;;15.20;1.00;;;;;;2268113;61;1032;-88
2023/11/16 07:42:20;1629.00;0.01;3.44;0.00;0.00;0.62;;;;;15.30;1.00;;;;;;2268126;61;1047;-87
2023/11/16 07:44:47;196687.00;0.66;340.22;24568.00;0.08;43.18;;;;;15.30;1.00;;;;;;2268877;61;1396;-87
2023/11/16 07:47:14;93250.00;0.31;161.92;19170.00;0.06;33.83;;;;;15.40;1.00;;;;;;2268816;61;1483;-89
2023/11/16 07:49:41;132588.00;0.44;229.79;0.00;0.00;0.62;;;;;15.40;1.00;;;;;;2268841;61;1055;-88
2023/11/16 07:52:09;135213.00;0.45;234.32;0.00;0.00;0.62;;;;;15.20;1.00;;;;;;2268840;61;2011;-87
2023/11/16 07:54:45;58192.00;0.19;101.35;0.00;0.00;0.62;;;;;15.30;1.00;;;;;;2268686;61;1430;-87
2023/11/16 07:57:20;0.00;0.00;0.62;0.00;0.00;0.62;;;;;15.30;1.00;;;;;;2268879;61;1130;-87
2023/11/16 07:59:47;301727.00;1.01;520.89;87015.00;0.29;151.15;;;;;15.40;1.00;;;;;;2268741;61;1091;-86
2023/11/16 08:02:16;73260.00;0.24;127.39;0.00;0.00;0.62;;;;;15.40;1.00;;;;;;2268792;61;2266;-88
2023/11/16 08:04:43;77604.00;0.26;134.90;0.00;0.00;0.62;;;;;15.50;1.00;;;;;;2268767;61;1398;-86
2023/11/16 08:07:11;0.00;0.00;0.62;0.00;0.00;0.62;;;;;15.60;1.00;;;;;;2268747;61;1001;-87
2023/11/16 08:09:39;38438.00;0.13;67.19;0.00;0.00;0.62;;;;;15.60;1.00;;;;;;2268706;61;1578;-87
2023/11/16 08:12:10;47746.00;0.16;83.29;0.00;0.00;0.62;;;;;15.50;1.00;;;;;;2268546;61;2018;-87
2023/11/16 08:14:37;33838.00;0.11;59.23;0.00;0.00;0.62;;;;;15.50;1.00;;;;;;2268744;61;1324;-88
2023/11/16 08:17:04;27243.00;0.09;47.81;0.00;0.00;0.62;;;;;15.40;1.00;;;;;;2268810;61;1104;-87
2023/11/16 08:19:31;119026.00;0.40;206.40;0.00;0.00;0.62;;;;;15.40;1.00;;;;;;2268760;61;1043;-87
2023/11/16 08:21:59;82314.00;0.27;143.03;0.00;0.00;0.62;;;;;15.20;1.00;;;;;;2268751;61;1101;-86
2023/11/16 08:24:26;179328.00;0.60;310.33;0.00;0.00;0.62;;;;;15.10;1.00;;;;;;2268769;61;1365;-86
2023/11/16 08:26:56;44627.00;0.15;77.89;0.00;0.00;0.62;;;;;15.00;1.00;;;;;;2268750;61;1040;-88
2023/11/16 08:29:23;168573.00;0.56;291.81;18739.00;0.06;33.09;;;;;15.10;1.00;;;;;;2281883;56;3779;-88
2023/11/16 08:31:52;31513.00;0.11;55.20;0.00;0.00;0.62;;;;;14.90;1.00;;;;;;2276791;61;1911;-87
2023/11/16 08:34:19;217874.00;0.73;376.69;57106.00;0.19;99.47;;;;;15.00;1.00;;;;;;2276677;61;1283;-87
2023/11/16 08:36:46;12175.00;0.04;21.72;0.00;0.00;0.62;;;;;15.20;1.00;;;;;;2276779;61;1081;-87
2023/11/16 08:39:14;44275.00;0.15;77.28;0.00;0.00;0.62;;;;;15.30;1.00;;;;;;2276704;61;1030;-87
2023/11/16 08:41:42;107785.00;0.36;187.01;0.00;0.00;0.62;;;;;15.40;1.00;;;;;;2276716;61;1035;-88
2023/11/16 08:44:11;61763.00;0.21;107.52;0.00;0.00;0.62;;;;;15.60;1.00;;;;;;2276858;61;1348;-87
2023/11/16 08:46:41;305556.00;1.02;527.47;34874.00;0.12;61.02;;;;;15.70;1.00;;;;;;2276725;61;1070;-87
2023/11/16 08:49:09;0.00;0.00;0.62;0.00;0.00;0.62;;;;;15.20;1.00;;;;;;2276758;61;1091;-86
2023/11/16 08:51:38;168077.00;0.56;290.95;26537.00;0.09;46.59;;;;;15.30;1.00;;;;;;2276749;61;1911;-87
2023/11/16 08:54:07;456578.00;1.52;787.10;60067.00;0.20;104.59;;;;;14.80;1.00;;;;;;2276644;61;1428;-87
2023/11/16 08:56:35;0.00;0.00;0.62;0.00;0.00;0.62;;;;;14.70;1.00;;;;;;2276559;61;1097;-87
2023/11/16 08:59:03;136978.00;0.46;237.36;34836.00;0.12;60.95;;;;;15.00;1.00;;;;;;2276734;61;1145;-88
2023/11/16 09:01:34;135983.00;0.45;235.65;0.00;0.00;0.62;;;;;15.00;1.00;;;;;;2276693;61;1578;-87
2023/11/16 09:04:01;138350.00;0.46;239.73;0.00;0.00;0.62;;;;;14.90;1.00;;;;;;2276663;61;1435;-87
2023/11/16 09:06:30;270929.00;0.90;467.94;39089.00;0.13;68.31;;;;;15.30;1.00;;;;;;2276722;61;1089;-87
2023/11/16 09:08:59;358334.00;1.19;618.19;32621.00;0.11;57.12;;;;;15.10;1.00;;;;;;2276650;61;2219;-87
2023/11/16 09:11:27;41023.00;0.14;71.66;0.00;0.00;0.62;;;;;15.00;1.00;;;;;;2276751;61;1923;-86
2023/11/16 09:13:54;29047.00;0.10;50.93;0.00;0.00;0.62;;;;;15.10;1.00;;;;;;2276612;61;1368;-88
2023/11/16 09:16:22;1090750.00;3.64;1893.89;155190.00;0.52;268.75;;;;;15.50;1.00;;;;;;2276675;61;915;-88
2023/11/16 09:18:50;929810.00;3.10;1608.54;72561.00;0.24;126.19;;;;;15.60;1.00;;;;;;2276754;61;1107;-87
2023/11/16 09:21:19;1003216.00;3.34;1738.17;22548.00;0.08;39.68;;;;;15.80;1.00;;;;;;2276653;61;1066;-86
2023/11/16 09:23:45;914862.00;3.05;1582.24;92989.00;0.31;161.47;;;;;15.80;1.00;;;;;;2276607;61;1275;-87
2023/11/16 09:26:12;908655.00;3.03;1571.33;39280.00;0.13;68.64;;;;;15.90;1.00;;;;;;2276694;61;1100;-87
2023/11/16 09:28:39;1256807.00;4.19;2193.27;225407.00;0.75;389.65;;;;;16.10;1.00;;;;;;2276530;61;1125;-87
2023/11/16 09:31:11;1202475.00;4.01;2094.70;104258.00;0.35;180.92;;;;;16.10;1.00;;;;;;2276380;61;1919;-87
2023/11/16 10:09:14;1304970.00;4.35;2281.20;111194.00;0.37;192.89;;;;;14.80;1.00;;;;;;2510424;40;3496;31
2023/11/16 10:34:31;2139158.00;7.13;3914.09;104373.00;0.35;181.12;;;;;14.30;1.00;;;;;;2274692;61;1345;-88
2023/11/16 10:37:01;973281.00;3.24;1685.21;35766.00;0.12;62.56;;;;;14.30;1.00;;;;;;2272948;61;1680;-90
2023/11/16 10:52:05;1657542.00;5.53;2943.22;50074.00;0.17;87.31;;;;;14.60;1.00;;;;;;2504440;55;3533;31
2023/11/16 11:34:43;1386805.00;4.62;2431.87;28299.00;0.09;49.64;;;;;15.40;1.00;;;;;;2278522;61;1344;-90
2023/11/16 11:44:51;704434.00;2.35;1214.93;12379.00;0.04;22.07;;;;;15.40;1.00;;;;;;2426498;55;3100;31
2023/11/16 12:02:22;1237271.00;4.12;2157.75;20389.00;0.07;35.94;;;;;14.90;1.00;;;;;;2513843;40;3376;31
2023/11/16 12:07:18;889695.00;2.97;1538.03;100979.00;0.34;175.26;;;;;15.20;1.00;;;;;;2508577;40;3396;31
2023/11/16 12:58:38;1174602.00;3.92;2044.37;83904.00;0.28;145.78;;;;;15.20;1.00;;;;;;2270709;61;1003;-90
2023/11/16 13:32:15;882022.00;2.94;1524.57;0.00;0.00;0.62;;;;;13.60;1.00;;;;;;2270969;61;1942;-90
2023/11/16 13:37:20;951369.00;3.17;1646.53;0.00;0.00;0.62;;;;;13.90;1.00;;;;;;2267005;61;1318;-91
2023/11/16 13:39:49;328431.00;1.09;566.79;0.00;0.00;0.62;;;;;13.90;1.00;;;;;;2265071;61;1568;-89
2023/11/16 13:47:37;738119.00;2.46;1273.41;84963.00;0.28;147.61;;;;;14.40;1.00;;;;;;2270954;61;1722;-93
2023/11/16 13:55:01;1149028.00;3.83;1998.33;137864.00;0.46;238.89;;;;;14.00;1.00;;;;;;2508364;40;3526;31
2023/11/16 14:50:20;774286.00;2.58;1336.31;0.00;0.00;0.62;;;;;13.80;1.00;;;;;;2024627;40;3391;-88
2023/11/16 14:52:47;15693.00;0.05;27.81;0.00;0.00;0.62;;;;;13.60;1.00;;;;;;2275814;61;2395;-88
2023/11/16 14:57:43;180880.00;0.60;313.01;0.00;0.00;0.62;;;;;13.70;1.00;;;;;;2266193;61;1378;-89
2023/11/16 15:00:14;91826.00;0.31;159.46;0.00;0.00;0.62;;;;;13.80;1.00;;;;;;2263961;61;989;-87
2023/11/16 15:02:41;28868.00;0.10;50.62;0.00;0.00;0.62;;;;;13.80;1.00;;;;;;2263944;61;939;-88
2023/11/16 15:30:01;126104.00;0.42;218.61;0.00;0.00;0.62;;;;;12.50;1.00;;;;;;2269338;61;1301;-88
2023/11/16 15:35:03;287636.00;0.96;496.67;0.00;0.00;0.62;;;;;11.70;1.00;;;;;;2269477;61;1423;-87
2023/11/16 15:40:01;313166.00;1.04;540.55;0.00;0.00;0.62;;;;;11.70;1.00;;;;;;2269639;61;1345;-87
2023/11/16 15:42:27;94907.00;0.32;164.78;0.00;0.00;0.62;;;;;11.70;1.00;;;;;;2268083;61;898;-86
2023/11/16 15:44:54;191744.00;0.64;331.71;0.00;0.00;0.62;;;;;11.50;1.00;;;;;;2267953;61;1351;-87
2023/11/16 15:47:23;0.00;0.00;0.62;0.00;0.00;0.62;;;;;10.60;2.40;;;;;;2267839;61;956;-87
2023/11/16 15:49:50;105351.00;0.35;182.81;28077.00;0.09;49.25;;;;;10.60;3.70;;;;;;2281090;40;3584;-87
2023/11/16 15:52:17;17982.00;0.06;31.78;0.00;0.00;0.62;;;;;10.90;2.20;;;;;;2275926;61;1920;-89
2023/11/16 15:54:46;122969.00;0.41;213.20;29910.00;0.10;52.43;;;;;11.30;1.60;;;;;;2276090;61;1350;-87
2023/11/16 15:57:13;5905.00;0.02;10.85;0.00;0.00;0.62;;;;;11.90;1.00;;;;;;2276086;61;1013;-88
2023/11/16 15:59:41;178453.00;0.59;308.83;22802.00;0.08;40.12;;;;;12.40;1.00;;;;;;2276135;61;1033;-87
2023/11/16 16:02:08;244473.00;0.81;422.44;0.00;0.00;0.62;;;;;12.40;1.00;;;;;;2276091;61;1047;-87
2023/11/16 16:04:36;74540.00;0.25;129.60;0.00;0.00;0.62;;;;;12.40;1.00;;;;;;2276357;61;1256;-88
2023/11/16 16:07:04;17935.00;0.06;31.69;0.00;0.00;0.62;;;;;12.50;1.00;;;;;;2276826;61;1060;-86
2023/11/16 16:09:30;246923.00;0.82;426.66;42279.00;0.14;73.83;;;;;12.30;1.00;;;;;;2276755;61;1087;-87
2023/11/16 16:11:57;222950.00;0.74;385.42;24205.00;0.08;42.55;;;;;12.50;1.00;;;;;;2276477;61;1928;-87
2023/11/16 16:14:24;80349.00;0.27;139.64;0.00;0.00;0.62;;;;;12.70;1.00;;;;;;2276569;61;1265;-88
2023/11/16 16:16:52;113099.00;0.38;196.18;0.00;0.00;0.62;;;;;12.90;1.00;;;;;;2276736;61;1716;-87
2023/11/16 16:19:19;55277.00;0.18;96.31;0.00;0.00;0.62;;;;;13.10;1.00;;;;;;2276725;61;912;-87
2023/11/16 16:21:48;59916.00;0.20;104.33;0.00;0.00;0.62;;;;;13.10;1.00;;;;;;2276678;61;1048;-88
2023/11/16 16:24:15;116881.00;0.39;202.70;0.00;0.00;0.62;;;;;12.90;1.00;;;;;;2281846;56;3787;-89
2023/11/16 16:26:42;35962.00;0.12;62.90;0.00;0.00;0.62;;;;;13.00;1.00;;;;;;2272390;61;983;-89
2023/11/16 16:29:09;0.00;0.00;0.62;0.00;0.00;0.62;;;;;13.00;1.00;;;;;;2272572;61;1717;-86
2023/11/16 16:31:36;87104.00;0.29;151.31;0.00;0.00;0.62;;;;;13.00;1.00;;;;;;2272467;61;2014;-88
2023/11/16 16:34:03;0.00;0.00;0.62;0.00;0.00;0.62;;;;;13.10;1.00;;;;;;2272617;61;1329;-89
2023/11/16 16:36:30;126713.00;0.42;219.66;20766.00;0.07;36.60;;;;;13.00;1.00;;;;;;2272576;61;1728;-90
2023/11/16 16:38:58;72516.00;0.24;126.11;0.00;0.00;0.62;;;;;13.20;1.00;;;;;;2272641;61;1740;-88
2023/11/16 16:41:26;51140.00;0.17;89.16;0.00;0.00;0.62;;;;;13.20;1.00;;;;;;2272707;61;1060;-89
2023/11/16 16:46:24;88614.00;0.30;153.91;0.00;0.00;0.62;;;;;13.10;1.00;;;;;;2266216;61;1312;-89
2023/11/16 16:48:51;35756.00;0.12;62.54;0.00;0.00;0.62;;;;;13.10;1.00;;;;;;2264415;61;1796;-90
2023/11/16 16:51:18;58832.00;0.20;102.46;0.00;0.00;0.62;;;;;13.10;1.00;;;;;;2264592;61;1095;-89
2023/11/16 16:53:45;56851.00;0.19;99.03;0.00;0.00;0.62;;;;;13.00;1.00;;;;;;2263749;61;2021;-88
2023/11/16 16:56:13;119430.00;0.40;207.10;13885.00;0.05;24.68;;;;;13.00;1.00;;;;;;2260253;61;1686;-88
2023/11/16 17:06:05;364208.00;1.21;628.28;0.00;0.00;0.62;;;;;13.50;1.00;;;;;;2279720;55;3682;-89
2023/11/16 17:08:32;132096.00;0.44;228.94;0.00;0.00;0.62;;;;;13.30;1.00;;;;;;2276454;61;1035;-88
2023/11/16 17:10:59;226673.00;0.76;391.82;0.00;0.00;0.62;;;;;13.30;1.00;;;;;;2278743;40;3625;-85
2023/11/16 17:15:57;40624.00;0.14;70.97;0.00;0.00;0.62;;;;;13.30;1.00;;;;;;2269683;61;1386;-86
2023/11/16 17:18:24;55094.00;0.18;95.99;0.00;0.00;0.62;;;;;13.30;1.00;;;;;;2268306;61;970;-88
2023/11/16 17:25:49;147942.00;0.49;256.26;0.00;0.00;0.62;;;;;13.40;1.00;;;;;;2304659;54;3705;-87
2023/11/16 17:28:16;119053.00;0.40;206.45;23313.00;0.08;41.01;;;;;13.40;1.00;;;;;;2268194;61;1810;-88
2023/11/16 17:30:43;94830.00;0.32;164.65;0.00;0.00;0.62;;;;;13.40;1.00;;;;;;2268329;61;940;-87
2023/11/16 17:33:11;116932720.00;389.78;64763760.00;0.00;0.00;0.62;;;;;13.10;1.00;;;;;;2268300;61;1916;-88
2023/11/16 17:38:10;84188.00;0.28;146.27;0.00;0.00;0.62;;;;;12.70;1.00;;;;;;2273816;61;1617;-88
2023/11/16 17:43:08;213750.00;0.71;369.59;0.00;0.00;0.62;;;;;12.70;1.00;;;;;;2270440;61;1234;-88
2023/11/16 17:45:35;213227.00;0.71;368.69;0.00;0.00;0.62;;;;;12.70;1.00;;;;;;2268236;61;1708;-87
2023/11/16 17:48:02;12445.00;0.04;22.18;0.00;0.00;0.62;;;;;13.00;1.00;;;;;;2268443;61;1104;-87
2023/11/16 17:50:30;146560.00;0.49;253.88;0.00;0.00;0.62;;;;;12.70;1.00;;;;;;2268322;61;2060;-88
2023/11/16 17:52:57;95623.00;0.32;166.02;0.00;0.00;0.62;;;;;12.70;1.00;;;;;;2268266;61;2013;-88
2023/11/16 17:55:24;80848.00;0.27;140.50;0.00;0.00;0.62;;;;;12.60;1.00;;;;;;2268191;61;1307;-87
2023/11/16 17:57:51;86164.00;0.29;149.68;0.00;0.00;0.62;;;;;12.70;1.00;;;;;;2268264;61;1122;-86
2023/11/16 18:00:22;104641.00;0.35;181.58;0.00;0.00;0.62;;;;;12.70;1.00;;;;;;2268175;61;1058;-86
2023/11/16 18:02:51;71103.00;0.24;123.67;0.00;0.00;0.62;;;;;12.30;1.00;;;;;;2268192;61;982;-88
2023/11/16 18:05:17;264539.00;0.88;456.95;56334.00;0.19;98.14;;;;;12.10;1.00;;;;;;2268211;61;1353;-88
2023/11/16 18:07:46;121575.00;0.41;210.80;0.00;0.00;0.62;;;;;12.10;1.00;;;;;;2275451;55;3759;-85
2023/11/16 18:10:16;35914.00;0.12;62.82;0.00;0.00;0.62;;;;;12.30;1.00;;;;;;2281836;40;3609;-86
2023/11/16 18:12:45;11894.00;0.04;21.23;0.00;0.00;0.62;;;;;11.60;1.00;;;;;;2272201;61;1909;-87
2023/11/16 18:15:15;95214.00;0.32;165.31;0.00;0.00;0.62;;;;;11.30;1.90;;;;;;2269099;61;1609;-87
2023/11/16 18:17:41;36480.00;0.12;63.80;0.00;0.00;0.62;;;;;11.10;3.30;;;;;;2268260;61;1691;-86
2023/11/16 18:20:10;122403.00;0.41;212.23;0.00;0.00;0.62;;;;;10.80;4.40;;;;;;2268368;61;964;-86
2023/11/16 18:22:37;71058.00;0.24;123.59;0.00;0.00;0.62;;;;;10.40;5.50;;;;;;2268234;61;1126;-88
2023/11/16 18:25:11;82538.00;0.28;143.42;0.00;0.00;0.62;;;;;10.30;7.60;;;;;;2268219;61;1388;-85
2023/11/16 18:30:11;369493.00;1.23;637.37;0.00;0.00;0.62;;;;;10.40;6.50;;;;;;2281758;55;3627;-87
2023/11/16 18:32:39;18425.00;0.06;32.54;0.00;0.00;0.62;;;;;10.20;8.10;;;;;;2272020;61;1982;-86
2023/11/16 18:35:07;0.00;0.00;0.62;0.00;0.00;0.62;;;;;10.20;8.10;;;;;;2268975;61;1690;-87
2023/11/16 18:37:33;210688.00;0.70;364.32;42063.00;0.14;73.46;;;;;10.10;8.80;;;;;;2268071;61;1703;-87
2023/11/16 18:40:00;334223.00;1.11;576.74;0.00;0.00;0.62;;;;;10.00;9.70;;;;;;2276084;41;3588;-87
2023/11/16 18:44:59;46392.00;0.15;80.95;0.00;0.00;0.62;;;;;9.90;10.70;;;;;;2270088;61;1408;-87
2023/11/16 18:47:25;100391.00;0.33;174.25;0.00;0.00;0.62;;;;;10.20;10.20;;;;;;2284390;55;3727;-87
2023/11/16 18:49:53;170906.00;0.57;295.83;16707.00;0.06;29.57;;;;;10.30;9.50;;;;;;2272122;61;1097;-88
2023/11/16 18:52:20;36454.00;0.12;63.75;0.00;0.00;0.62;;;;;10.00;8.40;;;;;;2272261;61;2402;-88
2023/11/16 18:54:47;95057.00;0.32;165.04;0.00;0.00;0.62;;;;;9.70;10.60;;;;;;2269552;61;1634;-89
2023/11/16 18:57:14;23646.00;0.08;41.58;0.00;0.00;0.62;;;;;9.70;12.70;;;;;;2268078;61;1137;-89
2023/11/16 18:59:43;215976.00;0.72;373.42;0.00;0.00;0.62;;;;;10.00;10.00;;;;;;2268079;61;1664;-88
2023/11/16 19:02:12;290347.00;0.97;501.33;10885.00;0.04;19.48;;;;;9.90;10.80;;;;;;2268019;61;979;-88
2023/11/16 19:04:39;129879.00;0.43;225.12;0.00;0.00;0.62;;;;;9.50;12.20;;;;;;2267991;61;1587;-90
2023/11/16 19:09:36;335087.00;1.12;578.23;7229.00;0.02;13.15;;;;;8.90;17.60;;;;;;1976948;56;3606;-89
2023/11/16 19:14:37;115555.00;0.39;200.41;0.00;0.00;0.62;;;;;8.80;19.30;;;;;;2265403;61;1404;-88
2023/11/16 19:17:04;13352.00;0.04;23.76;0.00;0.00;0.62;;;;;8.60;21.00;;;;;;2263998;61;1102;-88
2023/11/16 19:19:33;71275.00;0.24;123.96;0.00;0.00;0.62;;;;;8.40;23.10;;;;;;2263888;61;1540;-87
2023/11/16 19:22:06;9787.00;0.03;17.58;0.00;0.00;0.62;;;;;8.60;23.20;;;;;;2263918;61;903;-88
2023/11/16 19:24:35;36532.00;0.12;63.89;0.00;0.00;0.62;;;;;8.50;22.60;;;;;;2264014;61;1407;-88
2023/11/16 19:27:03;154150.00;0.51;266.96;42331.00;0.14;73.92;;;;;8.60;23.10;;;;;;2272414;55;3892;-88
2023/11/16 19:29:29;269485.00;0.90;465.46;6797.00;0.02;12.40;;;;;8.50;23.00;;;;;;2271991;61;1539;-88
2023/11/16 19:31:56;130409.00;0.43;226.03;0.00;0.00;0.62;;;;;8.50;23.60;;;;;;2272067;61;1059;-86
2023/11/16 19:34:24;124425.00;0.41;215.71;0.00;0.00;0.62;;;;;8.50;24.50;;;;;;2272014;61;2018;-87
2023/11/16 19:36:53;163345.00;0.54;282.80;0.00;0.00;0.62;;;;;8.50;24.60;;;;;;2271931;61;1288;-87
2023/11/16 19:39:20;294452.00;0.98;508.38;0.00;0.00;0.62;;;;;8.40;24.80;;;;;;2285805;40;3623;-88
2023/11/16 19:41:47;399717.00;1.33;689.32;67755.00;0.23;117.88;;;;;8.50;24.50;;;;;;2279092;55;3774;-88
2023/11/16 19:44:14;12620.00;0.04;22.49;0.00;0.00;0.62;;;;;8.50;24.00;;;;;;2311525;55;3779;-86
2023/11/16 19:46:50;133454.00;0.44;231.29;0.00;0.00;0.62;;;;;8.60;24.10;;;;;;2271914;61;1028;-86
2023/11/16 19:49:17;363730.00;1.21;627.46;0.00;0.00;0.62;;;;;8.50;24.40;;;;;;2271820;61;1439;-89
2023/11/16 19:51:44;96377.00;0.32;167.32;0.00;0.00;0.62;;;;;8.70;23.40;;;;;;2272227;40;3578;-87
2023/11/16 19:54:13;117542.00;0.39;203.84;0.00;0.00;0.62;;;;;8.70;23.00;;;;;;2267585;61;1911;-87
2023/11/16 19:59:09;134072.00;0.45;232.35;0.00;0.00;0.62;;;;;8.50;23.30;;;;;;2269521;61;1284;-87
2023/11/16 20:01:36;67731.00;0.23;117.84;0.00;0.00;0.62;;;;;8.50;24.80;;;;;;2268013;61;1006;-87
2023/11/16 20:04:03;50583.00;0.17;88.19;0.00;0.00;0.62;;;;;8.50;24.50;;;;;;2268001;61;1398;-87
2023/11/16 20:06:29;67378.00;0.22;117.23;0.00;0.00;0.62;;;;;8.70;23.40;;;;;;2267790;61;1139;-88
2023/11/16 20:08:56;49109.00;0.16;85.65;0.00;0.00;0.62;;;;;8.90;23.10;;;;;;2267402;61;1796;-87
2023/11/16 20:11:25;7032.00;0.02;12.81;0.00;0.00;0.62;;;;;9.30;20.10;;;;;;2268097;61;1114;-86
2023/11/16 20:13:52;17808.00;0.06;31.47;0.00;0.00;0.62;;;;;9.80;17.10;;;;;;2268010;61;2020;-88
2023/11/16 20:16:19;37557.00;0.13;65.66;0.00;0.00;0.62;;;;;9.80;13.10;;;;;;2268012;61;2403;-87
2023/11/16 20:18:48;78215.00;0.26;135.95;0.00;0.00;0.62;;;;;9.90;14.00;;;;;;2267979;61;1014;-87
2023/11/16 20:21:16;9854.00;0.03;17.70;0.00;0.00;0.62;;;;;10.00;13.40;;;;;;2268026;61;1107;-86
2023/11/16 20:23:43;119852.00;0.40;207.83;0.00;0.00;0.62;;;;;10.60;12.90;;;;;;2267985;61;1300;-87
2023/11/16 20:26:11;162273.00;0.54;280.96;20508.00;0.07;36.15;;;;;10.50;7.30;;;;;;2268040;61;1036;-88
2023/11/16 20:28:41;21122.00;0.07;37.21;0.00;0.00;0.62;;;;;9.50;12.60;;;;;;2267946;61;1573;-90
2023/11/16 20:31:07;300496.00;1.00;518.77;0.00;0.00;0.62;;;;;9.60;16.40;;;;;;2280503;55;3743;-87
2023/11/16 20:33:34;116919888.00;389.73;64742436.00;0.00;0.00;0.62;;;;;9.60;14.90;;;;;;2271483;61;2000;-87
2023/11/16 20:36:03;331508.00;1.11;572.08;0.00;0.00;0.62;;;;;9.80;16.10;;;;;;2267522;61;1074;-87
2023/11/16 20:38:31;125013.00;0.42;216.73;0.00;0.00;0.62;;;;;9.80;14.80;;;;;;2267480;61;980;-85
2023/11/16 20:40:57;188481.00;0.63;326.09;0.00;0.00;0.62;;;;;10.00;12.30;;;;;;2267556;61;1571;-87
2023/11/16 20:43:28;249663.00;0.83;431.37;0.00;0.00;0.62;;;;;10.10;10.50;;;;;;2267377;61;1691;-88
2023/11/16 20:48:26;638303.00;2.13;1100.40;0.00;0.00;0.62;;;;;10.70;8.20;;;;;;2264697;61;1370;-87
2023/11/16 20:50:58;47852.00;0.16;83.47;0.00;0.00;0.62;;;;;11.10;7.00;;;;;;2263345;61;1575;-88